sensor_id;sensor_type;location;lat;lon;timestamp;pressure;altitude;pressure_sealevel;temperature;humidity
53659;BME280;41524;35.624;139.698;2023-03-26T00:00:18;101363.00;;;9.66;75.89
53659;BME280;41524;35.624;139.698;2023-03-26T00:05:11;101358.00;;;9.72;75.63
53659;BME280;41524;35.624;139.698;2023-03-26T00:10:16;101355.00;;;9.89;75.58
53659;BME280;41524;35.624;139.698;2023-03-26T00:15:13;101347.00;;;9.78;75.68
53659;BME280;41524;35.624;139.698;2023-03-26T00:20:12;101324.00;;;9.92;75.63
53659;BME280;41524;35.624;139.698;2023-03-26T00:25:21;101320.00;;;9.76;76.49
53659;BME280;41524;35.624;139.698;2023-03-26T00:30:11;101311.00;;;9.99;76.28
53659;BME280;41524;35.624;139.698;2023-03-26T00:35:21;101311.00;;;9.41;77.56
53659;BME280;41524;35.624;139.698;2023-03-26T00:40:16;101310.00;;;9.87;76.98
53659;BME280;41524;35.624;139.698;2023-03-26T00:45:11;101297.00;;;9.75;76.42
53659;BME280;41524;35.624;139.698;2023-03-26T00:50:15;101299.00;;;10.00;76.05
53659;BME280;41524;35.624;139.698;2023-03-26T00:55:16;101291.00;;;9.57;77.12
53659;BME280;41524;35.624;139.698;2023-03-26T01:00:13;101284.00;;;9.75;77.07
53659;BME280;41524;35.624;139.698;2023-03-26T01:05:46;101273.00;;;9.32;77.81
53659;BME280;41524;35.624;139.698;2023-03-26T01:10:13;101268.00;;;9.75;76.79
53659;BME280;41524;35.624;139.698;2023-03-26T01:15:12;101254.00;;;10.30;75.78
53659;BME280;41524;35.624;139.698;2023-03-26T01:20:19;101249.00;;;10.33;75.66
53659;BME280;41524;35.624;139.698;2023-03-26T01:25:10;101245.00;;;10.05;76.56
53659;BME280;41524;35.624;139.698;2023-03-26T01:30:15;101225.00;;;10.18;75.64
53659;BME280;41524;35.624;139.698;2023-03-26T01:35:19;101222.00;;;9.84;76.39
53659;BME280;41524;35.624;139.698;2023-03-26T01:40:22;101212.00;;;9.37;78.12
53659;BME280;41524;35.624;139.698;2023-03-26T01:45:17;101203.00;;;9.74;76.49
53659;BME280;41524;35.624;139.698;2023-03-26T01:50:12;101198.00;;;10.06;76.35
53659;BME280;41524;35.624;139.698;2023-03-26T01:55:16;101195.00;;;9.72;77.30
53659;BME280;41524;35.624;139.698;2023-03-26T02:00:20;101177.00;;;10.60;74.18
53659;BME280;41524;35.624;139.698;2023-03-26T02:05:22;101171.00;;;10.45;75.01
53659;BME280;41524;35.624;139.698;2023-03-26T02:10:19;101166.00;;;11.21;73.51
53659;BME280;41524;35.624;139.698;2023-03-26T02:15:12;101165.00;;;9.86;76.27
53659;BME280;41524;35.624;139.698;2023-03-26T02:20:18;101144.00;;;9.75;76.06
53659;BME280;41524;35.624;139.698;2023-03-26T02:25:17;101136.00;;;10.04;75.25
53659;BME280;41524;35.624;139.698;2023-03-26T02:30:19;101135.00;;;9.96;77.06
53659;BME280;41524;35.624;139.698;2023-03-26T02:35:12;101124.00;;;10.10;76.30
53659;BME280;41524;35.624;139.698;2023-03-26T02:40:11;101114.00;;;10.57;74.28
53659;BME280;41524;35.624;139.698;2023-03-26T02:45:15;101107.00;;;10.56;74.42
53659;BME280;41524;35.624;139.698;2023-03-26T02:50:16;101089.00;;;10.58;74.36
53659;BME280;41524;35.624;139.698;2023-03-26T02:55:12;101068.00;;;10.43;74.83
53659;BME280;41524;35.624;139.698;2023-03-26T03:00:18;101047.00;;;10.94;73.73
53659;BME280;41524;35.624;139.698;2023-03-26T03:05:17;101026.00;;;9.94;76.06
53659;BME280;41524;35.624;139.698;2023-03-26T03:10:12;101022.00;;;10.79;74.51
53659;BME280;41524;35.624;139.698;2023-03-26T03:15:12;101010.00;;;10.76;73.98
53659;BME280;41524;35.624;139.698;2023-03-26T03:20:16;100982.00;;;10.84;74.29
53659;BME280;41524;35.624;139.698;2023-03-26T03:25:11;100976.00;;;11.22;73.74
53659;BME280;41524;35.624;139.698;2023-03-26T03:30:16;100969.00;;;10.84;73.63
53659;BME280;41524;35.624;139.698;2023-03-26T03:35:16;100962.00;;;10.19;76.04
53659;BME280;41524;35.624;139.698;2023-03-26T03:40:11;100890.00;;;11.02;74.04
53659;BME280;41524;35.624;139.698;2023-03-26T03:45:16;100893.00;;;10.79;74.99
53659;BME280;41524;35.624;139.698;2023-03-26T03:50:21;100875.00;;;10.36;75.66
53659;BME280;41524;35.624;139.698;2023-03-26T03:55:15;100856.00;;;10.34;76.15
53659;BME280;41524;35.624;139.698;2023-03-26T04:00:12;100856.00;;;10.53;75.65
53659;BME280;41524;35.624;139.698;2023-03-26T04:05:11;100849.00;;;10.23;76.22
53659;BME280;41524;35.624;139.698;2023-03-26T04:10:16;100804.00;;;9.75;78.61
53659;BME280;41524;35.624;139.698;2023-03-26T04:15:11;100794.00;;;10.51;77.01
53659;BME280;41524;35.624;139.698;2023-03-26T04:20:15;100775.00;;;10.56;75.99
53659;BME280;41524;35.624;139.698;2023-03-26T04:25:15;100790.00;;;9.66;78.44
53659;BME280;41524;35.624;139.698;2023-03-26T04:30:20;100783.00;;;10.16;77.33
53659;BME280;41524;35.624;139.698;2023-03-26T04:35:13;100783.00;;;10.25;77.16
53659;BME280;41524;35.624;139.698;2023-03-26T04:40:15;100759.00;;;9.59;79.24
53659;BME280;41524;35.624;139.698;2023-03-26T04:45:24;100732.00;;;10.51;76.97
53659;BME280;41524;35.624;139.698;2023-03-26T04:50:21;100711.00;;;10.81;76.08
53659;BME280;41524;35.624;139.698;2023-03-26T04:55:24;100697.00;;;10.77;75.79
53659;BME280;41524;35.624;139.698;2023-03-26T05:00:16;100685.00;;;11.27;75.66
53659;BME280;41524;35.624;139.698;2023-03-26T05:05:16;100659.00;;;10.86;76.08
53659;BME280;41524;35.624;139.698;2023-03-26T05:10:16;100653.00;;;11.00;75.38
53659;BME280;41524;35.624;139.698;2023-03-26T05:15:19;100661.00;;;10.38;77.49
53659;BME280;41524;35.624;139.698;2023-03-26T05:20:18;100648.00;;;10.60;77.51
53659;BME280;41524;35.624;139.698;2023-03-26T05:25:16;100647.00;;;9.82;78.68
53659;BME280;41524;35.624;139.698;2023-03-26T05:30:14;100632.00;;;10.65;77.18
53659;BME280;41524;35.624;139.698;2023-03-26T05:35:11;100629.00;;;10.14;79.52
53659;BME280;41524;35.624;139.698;2023-03-26T05:40:16;100598.00;;;9.63;80.67
53659;BME280;41524;35.624;139.698;2023-03-26T05:45:19;100590.00;;;9.78;80.50
53659;BME280;41524;35.624;139.698;2023-03-26T05:50:15;100597.00;;;9.94;79.86
53659;BME280;41524;35.624;139.698;2023-03-26T05:55:11;100596.00;;;9.94;79.96
53659;BME280;41524;35.624;139.698;2023-03-26T06:00:18;100587.00;;;9.71;80.78
53659;BME280;41524;35.624;139.698;2023-03-26T06:05:12;100578.00;;;10.55;78.96
53659;BME280;41524;35.624;139.698;2023-03-26T06:10:11;100558.00;;;10.02;80.27
53659;BME280;41524;35.624;139.698;2023-03-26T06:15:12;100543.00;;;9.97;80.25
53659;BME280;41524;35.624;139.698;2023-03-26T06:20:17;100516.00;;;10.69;78.66
53659;BME280;41524;35.624;139.698;2023-03-26T06:25:13;100500.00;;;10.13;80.43
53659;BME280;41524;35.624;139.698;2023-03-26T06:30:16;100498.00;;;10.94;78.14
53659;BME280;41524;35.624;139.698;2023-03-26T06:35:11;100500.00;;;10.28;79.30
53659;BME280;41524;35.624;139.698;2023-03-26T06:40:11;100513.00;;;10.16;80.31
53659;BME280;41524;35.624;139.698;2023-03-26T06:45:11;100513.00;;;10.23;78.98
53659;BME280;41524;35.624;139.698;2023-03-26T06:50:15;100504.00;;;10.60;78.27
53659;BME280;41524;35.624;139.698;2023-03-26T06:55:16;100489.00;;;10.79;77.86
53659;BME280;41524;35.624;139.698;2023-03-26T07:00:12;100488.00;;;10.00;79.40
53659;BME280;41524;35.624;139.698;2023-03-26T07:05:18;100484.00;;;10.32;78.56
53659;BME280;41524;35.624;139.698;2023-03-26T07:10:11;100463.00;;;10.78;77.47
53659;BME280;41524;35.624;139.698;2023-03-26T07:15:12;100450.00;;;10.48;78.08
53659;BME280;41524;35.624;139.698;2023-03-26T07:20:12;100435.00;;;10.86;77.26
53659;BME280;41524;35.624;139.698;2023-03-26T07:25:12;100436.00;;;10.88;76.99
53659;BME280;41524;35.624;139.698;2023-03-26T07:30:22;100411.00;;;10.77;77.54
53659;BME280;41524;35.624;139.698;2023-03-26T07:35:21;100406.00;;;10.97;77.27
53659;BME280;41524;35.624;139.698;2023-03-26T07:40:26;100412.00;;;10.66;77.84
53659;BME280;41524;35.624;139.698;2023-03-26T07:45:17;100401.00;;;11.30;76.40
53659;BME280;41524;35.624;139.698;2023-03-26T07:50:19;100399.00;;;10.77;77.44
53659;BME280;41524;35.624;139.698;2023-03-26T07:55:18;100385.00;;;10.80;77.74
53659;BME280;41524;35.624;139.698;2023-03-26T08:00:18;100372.00;;;11.06;76.63
53659;BME280;41524;35.624;139.698;2023-03-26T08:05:17;100358.00;;;10.53;77.96
53659;BME280;41524;35.624;139.698;2023-03-26T08:10:17;100346.00;;;11.06;76.41
53659;BME280;41524;35.624;139.698;2023-03-26T08:15:17;100349.00;;;11.75;74.84
53659;BME280;41524;35.624;139.698;2023-03-26T08:20:23;100359.00;;;10.85;77.34
53659;BME280;41524;35.624;139.698;2023-03-26T08:30:16;100333.00;;;11.20;76.49
53659;BME280;41524;35.624;139.698;2023-03-26T08:35:18;100341.00;;;11.20;76.52
53659;BME280;41524;35.624;139.698;2023-03-26T08:40:11;100333.00;;;11.05;76.75
53659;BME280;41524;35.624;139.698;2023-03-26T08:50:43;100363.00;;;10.38;78.87
53659;BME280;41524;35.624;139.698;2023-03-26T08:56:03;100345.00;;;11.90;75.63
53659;BME280;41524;35.624;139.698;2023-03-26T09:00:26;100340.00;;;11.73;74.47
53659;BME280;41524;35.624;139.698;2023-03-26T09:06:00;100356.00;;;11.11;76.34
53659;BME280;41524;35.624;139.698;2023-03-26T09:10:27;100341.00;;;10.75;77.26
53659;BME280;41524;35.624;139.698;2023-03-26T09:15:43;100336.00;;;10.68;78.01
53659;BME280;41524;35.624;139.698;2023-03-26T09:20:33;100338.00;;;11.49;75.50
53659;BME280;41524;35.624;139.698;2023-03-26T09:25:40;100349.00;;;10.84;77.27
53659;BME280;41524;35.624;139.698;2023-03-26T09:31:37;100348.00;;;11.34;75.85
53659;BME280;41524;35.624;139.698;2023-03-26T09:35:16;100329.00;;;10.96;76.49
53659;BME280;41524;35.624;139.698;2023-03-26T09:40:27;100332.00;;;10.16;78.90
53659;BME280;41524;35.624;139.698;2023-03-26T09:45:56;100327.00;;;11.19;76.28
53659;BME280;41524;35.624;139.698;2023-03-26T09:50:28;100338.00;;;11.28;74.92
53659;BME280;41524;35.624;139.698;2023-03-26T09:55:27;100338.00;;;11.22;75.89
53659;BME280;41524;35.624;139.698;2023-03-26T10:00:22;100348.00;;;11.34;75.03
53659;BME280;41524;35.624;139.698;2023-03-26T10:05:27;100347.00;;;11.07;76.15
53659;BME280;41524;35.624;139.698;2023-03-26T10:10:24;100363.00;;;11.00;76.51
53659;BME280;41524;35.624;139.698;2023-03-26T10:15:33;100366.00;;;10.80;76.88
53659;BME280;41524;35.624;139.698;2023-03-26T10:20:32;100369.00;;;11.31;75.42
53659;BME280;41524;35.624;139.698;2023-03-26T10:25:30;100366.00;;;11.55;75.10
53659;BME280;41524;35.624;139.698;2023-03-26T10:30:41;100360.00;;;12.55;72.15
53659;BME280;41524;35.624;139.698;2023-03-26T10:35:29;100354.00;;;10.97;75.55
53659;BME280;41524;35.624;139.698;2023-03-26T10:40:29;100348.00;;;11.84;74.35
53659;BME280;41524;35.624;139.698;2023-03-26T10:45:25;100362.00;;;11.14;75.73
53659;BME280;41524;35.624;139.698;2023-03-26T10:50:28;100388.00;;;11.74;73.62
53659;BME280;41524;35.624;139.698;2023-03-26T10:55:20;100406.00;;;11.44;75.21
53659;BME280;41524;35.624;139.698;2023-03-26T11:00:20;100408.00;;;11.59;74.71
53659;BME280;41524;35.624;139.698;2023-03-26T11:05:38;100429.00;;;11.45;74.42
53659;BME280;41524;35.624;139.698;2023-03-26T11:10:23;100427.00;;;12.37;73.08
53659;BME280;41524;35.624;139.698;2023-03-26T11:15:23;100425.00;;;12.28;71.99
53659;BME280;41524;35.624;139.698;2023-03-26T11:20:19;100416.00;;;12.35;71.39
53659;BME280;41524;35.624;139.698;2023-03-26T11:25:26;100432.00;;;11.65;74.53
53659;BME280;41524;35.624;139.698;2023-03-26T11:30:19;100423.00;;;11.65;74.23
53659;BME280;41524;35.624;139.698;2023-03-26T11:35:18;100412.00;;;12.89;70.61
53659;BME280;41524;35.624;139.698;2023-03-26T11:40:15;100417.00;;;11.81;74.02
53659;BME280;41524;35.624;139.698;2023-03-26T11:45:16;100416.00;;;12.49;71.55
53659;BME280;41524;35.624;139.698;2023-03-26T11:50:18;100415.00;;;13.39;69.42
53659;BME280;41524;35.624;139.698;2023-03-26T11:55:12;100393.00;;;12.34;72.10
53659;BME280;41524;35.624;139.698;2023-03-26T12:00:14;100371.00;;;12.50;71.32
53659;BME280;41524;35.624;139.698;2023-03-26T12:05:19;100370.00;;;12.23;72.23
53659;BME280;41524;35.624;139.698;2023-03-26T12:10:27;100407.00;;;13.81;68.84
53659;BME280;41524;35.624;139.698;2023-03-26T12:15:17;100402.00;;;13.29;70.66
53659;BME280;41524;35.624;139.698;2023-03-26T12:20:36;100401.00;;;12.23;72.96
53659;BME280;41524;35.624;139.698;2023-03-26T12:25:16;100387.00;;;12.41;72.96
53659;BME280;41524;35.624;139.698;2023-03-26T12:30:23;100365.00;;;11.16;76.17
53659;BME280;41524;35.624;139.698;2023-03-26T12:35:21;100353.00;;;11.57;75.53
53659;BME280;41524;35.624;139.698;2023-03-26T12:40:29;100367.00;;;13.19;70.29
53659;BME280;41524;35.624;139.698;2023-03-26T12:45:19;100379.00;;;12.51;72.48
53659;BME280;41524;35.624;139.698;2023-03-26T12:50:13;100384.00;;;12.99;70.97
53659;BME280;41524;35.624;139.698;2023-03-26T12:55:34;100404.00;;;12.84;70.59
53659;BME280;41524;35.624;139.698;2023-03-26T13:00:27;100422.00;;;12.43;72.18
53659;BME280;41524;35.624;139.698;2023-03-26T13:05:32;100425.00;;;12.67;71.44
53659;BME280;41524;35.624;139.698;2023-03-26T13:10:37;100432.00;;;12.51;71.88
53659;BME280;41524;35.624;139.698;2023-03-26T13:15:17;100444.00;;;11.86;73.80
53659;BME280;41524;35.624;139.698;2023-03-26T13:20:13;100422.00;;;12.55;71.97
53659;BME280;41524;35.624;139.698;2023-03-26T13:25:22;100433.00;;;12.27;73.31
53659;BME280;41524;35.624;139.698;2023-03-26T13:30:26;100437.00;;;12.30;73.38
53659;BME280;41524;35.624;139.698;2023-03-26T13:35:21;100442.00;;;12.09;74.68
53659;BME280;41524;35.624;139.698;2023-03-26T13:40:24;100440.00;;;11.52;75.86
53659;BME280;41524;35.624;139.698;2023-03-26T13:45:29;100447.00;;;11.46;77.06
53659;BME280;41524;35.624;139.698;2023-03-26T13:55:27;100458.00;;;12.03;74.44
53659;BME280;41524;35.624;139.698;2023-03-26T14:00:24;100457.00;;;11.74;75.36
53659;BME280;41524;35.624;139.698;2023-03-26T14:05:16;100446.00;;;11.81;75.09
53659;BME280;41524;35.624;139.698;2023-03-26T14:10:14;100457.00;;;11.55;77.18
53659;BME280;41524;35.624;139.698;2023-03-26T14:15:15;100462.00;;;11.63;76.94
53659;BME280;41524;35.624;139.698;2023-03-26T14:21:01;100472.00;;;12.06;75.59
53659;BME280;41524;35.624;139.698;2023-03-26T14:25:24;100463.00;;;12.42;74.16
53659;BME280;41524;35.624;139.698;2023-03-26T14:31:16;100464.00;;;11.44;77.55
53659;BME280;41524;35.624;139.698;2023-03-26T14:35:29;100465.00;;;12.39;74.75
53659;BME280;41524;35.624;139.698;2023-03-26T14:41:22;100466.00;;;11.81;75.80
53659;BME280;41524;35.624;139.698;2023-03-26T14:45:59;100464.00;;;12.27;74.52
53659;BME280;41524;35.624;139.698;2023-03-26T14:50:40;100482.00;;;12.46;73.56
53659;BME280;41524;35.624;139.698;2023-03-26T14:55:21;100495.00;;;12.45;73.96
53659;BME280;41524;35.624;139.698;2023-03-26T15:00:44;100510.00;;;11.90;74.24
53659;BME280;41524;35.624;139.698;2023-03-26T15:05:45;100507.00;;;12.03;73.28
53659;BME280;41524;35.624;139.698;2023-03-26T15:21:41;100546.00;;;12.18;71.03
53659;BME280;41524;35.624;139.698;2023-03-26T15:31:03;100564.00;;;11.19;67.16
53659;BME280;41524;35.624;139.698;2023-03-26T15:35:27;100577.00;;;12.22;63.84
53659;BME280;41524;35.624;139.698;2023-03-26T15:41:29;100570.00;;;11.84;64.98
53659;BME280;41524;35.624;139.698;2023-03-26T15:45:29;100560.00;;;10.91;65.74
53659;BME280;41524;35.624;139.698;2023-03-26T15:50:25;100568.00;;;11.17;63.85
53659;BME280;41524;35.624;139.698;2023-03-26T15:55:26;100576.00;;;11.20;62.27
53659;BME280;41524;35.624;139.698;2023-03-26T16:00:25;100585.00;;;10.65;62.41
53659;BME280;41524;35.624;139.698;2023-03-26T16:06:08;100583.00;;;11.37;60.28
53659;BME280;41524;35.624;139.698;2023-03-26T16:10:22;100583.00;;;10.76;59.95
53659;BME280;41524;35.624;139.698;2023-03-26T16:15:26;100588.00;;;10.60;60.50
53659;BME280;41524;35.624;139.698;2023-03-26T16:20:20;100598.00;;;11.18;57.34
53659;BME280;41524;35.624;139.698;2023-03-26T16:25:24;100597.00;;;11.30;56.59
53659;BME280;41524;35.624;139.698;2023-03-26T16:30:29;100599.00;;;10.87;56.52
53659;BME280;41524;35.624;139.698;2023-03-26T16:36:25;100638.00;;;10.82;56.42
53659;BME280;41524;35.624;139.698;2023-03-26T16:41:22;100643.00;;;10.65;56.62
53659;BME280;41524;35.624;139.698;2023-03-26T16:45:22;100652.00;;;10.70;56.70
53659;BME280;41524;35.624;139.698;2023-03-26T16:50:19;100650.00;;;11.46;54.65
53659;BME280;41524;35.624;139.698;2023-03-26T16:55:20;100648.00;;;11.37;54.63
53659;BME280;41524;35.624;139.698;2023-03-26T17:01:03;100667.00;;;11.27;54.38
53659;BME280;41524;35.624;139.698;2023-03-26T17:05:21;100664.00;;;10.71;54.41
53659;BME280;41524;35.624;139.698;2023-03-26T17:10:17;100683.00;;;11.72;52.05
53659;BME280;41524;35.624;139.698;2023-03-26T17:15:23;100707.00;;;10.44;52.29
53659;BME280;41524;35.624;139.698;2023-03-26T17:20:20;100707.00;;;11.10;51.88
53659;BME280;41524;35.624;139.698;2023-03-26T17:25:27;100715.00;;;10.47;52.56
53659;BME280;41524;35.624;139.698;2023-03-26T17:30:41;100724.00;;;10.19;52.84
53659;BME280;41524;35.624;139.698;2023-03-26T17:35:11;100736.00;;;10.68;51.63
53659;BME280;41524;35.624;139.698;2023-03-26T17:41:51;100747.00;;;10.21;51.11
53659;BME280;41524;35.624;139.698;2023-03-26T17:45:15;100743.00;;;11.20;50.01
53659;BME280;41524;35.624;139.698;2023-03-26T17:50:21;100760.00;;;10.30;51.33
53659;BME280;41524;35.624;139.698;2023-03-26T17:55:17;100766.00;;;10.51;49.25
53659;BME280;41524;35.624;139.698;2023-03-26T18:00:18;100764.00;;;10.20;49.36
53659;BME280;41524;35.624;139.698;2023-03-26T18:05:13;100768.00;;;9.74;50.27
53659;BME280;41524;35.624;139.698;2023-03-26T18:10:25;100788.00;;;10.33;48.84
53659;BME280;41524;35.624;139.698;2023-03-26T18:15:27;100815.00;;;9.32;49.61
53659;BME280;41524;35.624;139.698;2023-03-26T18:25:23;100817.00;;;9.95;49.02
53659;BME280;41524;35.624;139.698;2023-03-26T18:30:16;100832.00;;;9.29;48.53
53659;BME280;41524;35.624;139.698;2023-03-26T18:35:16;100839.00;;;9.74;48.56
53659;BME280;41524;35.624;139.698;2023-03-26T18:40:15;100851.00;;;10.51;47.34
53659;BME280;41524;35.624;139.698;2023-03-26T18:45:26;100858.00;;;9.16;47.95
53659;BME280;41524;35.624;139.698;2023-03-26T18:50:20;100859.00;;;9.59;47.41
53659;BME280;41524;35.624;139.698;2023-03-26T18:55:13;100863.00;;;10.25;46.45
53659;BME280;41524;35.624;139.698;2023-03-26T19:00:20;100883.00;;;9.50;46.93
53659;BME280;41524;35.624;139.698;2023-03-26T19:05:14;100891.00;;;10.23;45.00
53659;BME280;41524;35.624;139.698;2023-03-26T19:10:15;100899.00;;;9.51;45.58
53659;BME280;41524;35.624;139.698;2023-03-26T19:15:13;100913.00;;;9.65;45.30
53659;BME280;41524;35.624;139.698;2023-03-26T19:20:17;100938.00;;;9.54;44.83
53659;BME280;41524;35.624;139.698;2023-03-26T19:25:21;100932.00;;;9.99;44.98
53659;BME280;41524;35.624;139.698;2023-03-26T19:30:13;100948.00;;;9.73;44.78
53659;BME280;41524;35.624;139.698;2023-03-26T19:35:20;100959.00;;;10.44;43.84
53659;BME280;41524;35.624;139.698;2023-03-26T19:40:17;100958.00;;;9.88;44.30
53659;BME280;41524;35.624;139.698;2023-03-26T19:45:18;100981.00;;;9.46;45.48
53659;BME280;41524;35.624;139.698;2023-03-26T19:50:21;100993.00;;;9.88;44.04
53659;BME280;41524;35.624;139.698;2023-03-26T19:55:20;100996.00;;;9.48;44.94
53659;BME280;41524;35.624;139.698;2023-03-26T20:00:13;101001.00;;;9.75;44.27
53659;BME280;41524;35.624;139.698;2023-03-26T20:05:17;101011.00;;;9.91;44.19
53659;BME280;41524;35.624;139.698;2023-03-26T20:10:12;101013.00;;;9.43;43.94
53659;BME280;41524;35.624;139.698;2023-03-26T20:15:15;101030.00;;;9.84;43.78
53659;BME280;41524;35.624;139.698;2023-03-26T20:20:12;101036.00;;;9.77;43.24
53659;BME280;41524;35.624;139.698;2023-03-26T20:25:17;101050.00;;;9.46;43.29
53659;BME280;41524;35.624;139.698;2023-03-26T20:30:17;101063.00;;;10.09;42.01
53659;BME280;41524;35.624;139.698;2023-03-26T20:35:16;101071.00;;;10.10;42.72
53659;BME280;41524;35.624;139.698;2023-03-26T20:40:11;101078.00;;;9.19;43.84
53659;BME280;41524;35.624;139.698;2023-03-26T20:45:15;101086.00;;;9.81;42.49
53659;BME280;41524;35.624;139.698;2023-03-26T20:50:12;101095.00;;;9.97;42.13
53659;BME280;41524;35.624;139.698;2023-03-26T20:55:14;101107.00;;;9.82;42.54
53659;BME280;41524;35.624;139.698;2023-03-26T21:00:16;101116.00;;;9.79;41.90
53659;BME280;41524;35.624;139.698;2023-03-26T21:05:15;101120.00;;;10.46;40.52
53659;BME280;41524;35.624;139.698;2023-03-26T21:10:16;101123.00;;;9.14;42.54
53659;BME280;41524;35.624;139.698;2023-03-26T21:15:16;101114.00;;;9.43;41.71
53659;BME280;41524;35.624;139.698;2023-03-26T21:20:17;101123.00;;;9.86;42.53
53659;BME280;41524;35.624;139.698;2023-03-26T21:25:19;101129.00;;;9.06;42.46
53659;BME280;41524;35.624;139.698;2023-03-26T21:30:16;101141.00;;;9.37;41.76
53659;BME280;41524;35.624;139.698;2023-03-26T21:35:22;101148.00;;;9.29;41.90
53659;BME280;41524;35.624;139.698;2023-03-26T21:40:12;101141.00;;;9.87;41.09
53659;BME280;41524;35.624;139.698;2023-03-26T21:45:12;101144.00;;;10.04;41.11
53659;BME280;41524;35.624;139.698;2023-03-26T21:50:14;101151.00;;;10.63;40.64
53659;BME280;41524;35.624;139.698;2023-03-26T21:55:12;101160.00;;;9.15;40.79
53659;BME280;41524;35.624;139.698;2023-03-26T22:00:19;101178.00;;;9.25;43.16
53659;BME280;41524;35.624;139.698;2023-03-26T22:05:15;101179.00;;;10.29;41.50
53659;BME280;41524;35.624;139.698;2023-03-26T22:10:11;101183.00;;;9.89;39.90
53659;BME280;41524;35.624;139.698;2023-03-26T22:15:12;101195.00;;;9.44;40.00
53659;BME280;41524;35.624;139.698;2023-03-26T22:20:13;101211.00;;;9.00;40.89
53659;BME280;41524;35.624;139.698;2023-03-26T22:25:10;101213.00;;;8.74;41.15
53659;BME280;41524;35.624;139.698;2023-03-26T22:30:17;101236.00;;;9.39;41.25
53659;BME280;41524;35.624;139.698;2023-03-26T22:35:12;101256.00;;;9.30;40.54
53659;BME280;41524;35.624;139.698;2023-03-26T22:40:12;101255.00;;;9.17;41.96
53659;BME280;41524;35.624;139.698;2023-03-26T22:45:11;101268.00;;;9.77;41.06
53659;BME280;41524;35.624;139.698;2023-03-26T22:50:11;101280.00;;;9.76;42.51
53659;BME280;41524;35.624;139.698;2023-03-26T22:55:12;101285.00;;;9.27;41.62
53659;BME280;41524;35.624;139.698;2023-03-26T23:00:12;101300.00;;;9.41;40.28
53659;BME280;41524;35.624;139.698;2023-03-26T23:05:11;101287.00;;;10.25;40.75
53659;BME280;41524;35.624;139.698;2023-03-26T23:10:17;101281.00;;;10.35;39.89
53659;BME280;41524;35.624;139.698;2023-03-26T23:15:10;101273.00;;;11.03;38.98
53659;BME280;41524;35.624;139.698;2023-03-26T23:20:11;101277.00;;;10.11;39.38
53659;BME280;41524;35.624;139.698;2023-03-26T23:25:12;101294.00;;;10.52;38.52
53659;BME280;41524;35.624;139.698;2023-03-26T23:30:16;101309.00;;;10.73;38.75
53659;BME280;41524;35.624;139.698;2023-03-26T23:35:15;101306.00;;;11.83;37.75
53659;BME280;41524;35.624;139.698;2023-03-26T23:40:16;101316.00;;;10.45;38.91
53659;BME280;41524;35.624;139.698;2023-03-26T23:45:15;101326.00;;;11.08;37.97
53659;BME280;41524;35.624;139.698;2023-03-26T23:50:16;101336.00;;;11.13;37.81
53659;BME280;41524;35.624;139.698;2023-03-26T23:55:11;101360.00;;;11.49;37.00
